Aérodrome :
LOGIN :

S'inscrire | Disclaimer

   EN    FR    IT 

 










Légende :    VFR   VFR Marginal   IFR   IFR Intensif   IFR Très Intensif
Visi : 
Plafond : 
>= 8 km
>= 3000ft
5 à 8 km
1000 à 3000 ft
1500m à 5 km
500 à 1000 ft
800 à 1500m
200 à 500 ft
< 800m
< 200 ft
Symboles :   Orages  Brouillard  Fortes neiges  Fortes précipitations  Vent > 20 kt
SIGMETs :   Divers  Orages  Givrage  Turbulence  Onde Orograph.  Cendres Volcan.







- Altitude de l'aérodrome : 243 ft
- Code IATA : HOV


ENOV - Ørsta-Volda , Hovden

DERNIER METAR :
  • 252150Z 23007KT 9999 VCSH FEW020 SCT028 BKN035 02/M03 Q1022 RMK WIND 2175FT 28015KT

METARs EXPIRÉS :
  • 252050Z VRB04KT 9999 VCSH FEW015 BKN030 02/M01 Q1021 RMK WIND 2175FT 32023KT
  • 251950Z VRB06KT 9999 -SHRA FEW007 SCT019 BKN028 02/M00 Q1021 RMK WIND 2175FT 31029KT
  • 251920Z 18008KT 130V260 9999 -SHSNRA FEW007 SCT012 BKN023 02/00 Q1021 RMK WIND 2175FT 30030KT

TAF N/A
Pas de NOTAMs connus pour ce terrain.
3 SIGMETs publiés pour la FIR Norway (ENOR) :
 
Onde orographique forte
ENSV SIGMET B01 VALID 252000/260000 ENVV
ENOR NORWAY FIR SEV MTW FCST WI N6050 E00730 - N6100 E00615 - N6200 E00615 - N6200 E00730 - N6050 E00730 SFC/FL200 STNR WKN=
Onde orographique forte
ENOS SIGMET A01 VALID 252000/260000 ENMI
ENOR NORWAY FIR SEV MTW FCST WI N6030 E00730 - N6200 E00730 - N6200 E01215 - N6030 E00900 - N6030 E00730 SFC/FL220 STNR NC=
Turbulence forte
ENBD SIGMET C01 VALID 252000/260000 ENVV
ENOR NORWAY FIR SEV TURB FCST WI N6200 E00900 - N6250 E01040 - N6300 E01220 - N6200 E01215 - N6200 E00900 SFC/FL100 STNR WKN=



MET'MAP, la Météo Aéronautique d'un coup d'oeil ! - Copyright ORBIFLY Décembre 2007 - Disclaimer

ORBIFLY MET'MAP TEAM :

Programmation & Développement : Alexandra Zaïnal
Conception & Développement : Baudouin d'Aumeries
Co-Programmation & Développement : Marc-Olivier Méhu
Soutien technique & logistique : Manuel Goepfert

Contact : metmap@orbifly.com




SOURCES & CREDITS :

   NOAA